Time;durP1;ratioP1;P1;durP2;ratioP2;P2;SDS_P1;SDS_P2;PMS_P1;PMS_P2;Temp;Humidity;BMP_temperature;BMP_pressure;BME280_temperature;BME280_humidity;BME280_pressure;Samples;Min_cycle;Max_cycle;Signal;HPM_P1;HPM_P2
2021/12/12 00:01:42;;;;;;;52.72;28.92;;;4.00;99.90;;;;;;5085044;28;20032;-83
2021/12/12 00:04:12;;;;;;;;;;;3.90;99.90;;;;;;5080338;28;20040;-81
2021/12/12 00:06:43;;;;;;;55.22;26.45;;;3.90;99.90;;;;;;5089651;28;20353;-82
2021/12/12 00:09:17;;;;;;;47.42;27.00;;;3.90;99.90;;;;;;5063557;28;20073;-81
2021/12/12 00:11:43;;;;;;;49.97;25.83;;;3.90;99.90;;;;;;5082034;28;20436;-76
2021/12/12 00:14:11;;;;;;;48.38;27.10;;;3.90;99.90;;;;;;5085182;28;20052;-88
2021/12/12 00:16:39;;;;;;;44.83;25.60;;;4.00;99.90;;;;;;5086114;28;20051;-82
2021/12/12 00:19:05;;;;;;;49.83;27.25;;;4.20;99.90;;;;;;5084998;28;20476;-83
2021/12/12 00:21:37;;;;;;;38.25;24.83;;;4.10;99.90;;;;;;5068451;28;20036;-82
2021/12/12 00:24:05;;;;;;;44.00;25.75;;;4.20;99.90;;;;;;5082570;28;20048;-81
2021/12/12 00:26:31;;;;;;;47.60;25.00;;;4.20;99.90;;;;;;5064929;28;20040;-81
2021/12/12 00:28:57;;;;;;;48.30;23.50;;;4.10;99.90;;;;;;5088512;28;20039;-83
2021/12/12 00:31:24;;;;;;;39.65;25.55;;;4.00;99.90;;;;;;5078870;28;20036;-82
2021/12/12 00:33:54;;;;;;;52.03;25.15;;;4.20;99.90;;;;;;5091660;28;20455;-83
2021/12/12 00:36:20;;;;;;;45.38;25.17;;;4.00;99.90;;;;;;5092428;28;20040;-83
2021/12/12 00:38:58;;;;;;;69.20;24.45;;;4.20;99.90;;;;;;5093104;28;20093;-83
2021/12/12 00:41:32;;;;;;;40.58;25.35;;;4.20;99.90;;;;;;5087687;28;20410;-84
2021/12/12 00:43:59;;;;;;;45.00;25.13;;;4.10;99.90;;;;;;5093472;28;20044;-82
2021/12/12 00:46:25;;;;;;;38.97;23.52;;;4.10;99.90;;;;;;5069510;28;20037;-83
2021/12/12 00:48:53;;;;;;;41.95;23.88;;;4.20;99.90;;;;;;5087050;28;21022;-82
2021/12/12 00:51:25;;;;;;;45.25;26.15;;;4.40;99.90;;;;;;5069002;28;20043;-83
2021/12/12 00:53:53;;;;;;;39.40;22.10;;;4.30;99.90;;;;;;5092450;28;20072;-83
2021/12/12 00:56:19;;;;;;;45.67;24.88;;;4.40;99.90;;;;;;5091985;28;20120;-82
2021/12/12 00:58:45;;;;;;;35.13;22.48;;;4.40;99.90;;;;;;5070351;28;20056;-83
2021/12/12 01:01:19;;;;;;;44.58;25.45;;;4.40;99.90;;;;;;5052643;28;20047;-82
2021/12/12 01:03:49;;;;;;;42.45;25.30;;;4.30;99.90;;;;;;5074307;28;20059;-84
2021/12/12 01:06:14;;;;;;;;;;;4.40;99.90;;;;;;5091984;28;20040;-76
2021/12/12 01:08:42;;;;;;;39.20;20.88;;;4.30;99.90;;;;;;5090164;28;20451;-83
2021/12/12 01:11:11;;;;;;;48.63;25.35;;;4.30;99.90;;;;;;5055625;28;20052;-81
2021/12/12 01:13:37;;;;;;;48.83;22.88;;;4.30;99.90;;;;;;5034984;28;20124;-82
2021/12/12 01:16:16;;;;;;;45.00;23.65;;;4.50;99.90;;;;;;5064295;28;20098;-82
2021/12/12 01:18:51;;;;;;;51.17;24.77;;;4.30;99.90;;;;;;5055459;28;20080;-82
2021/12/12 01:21:21;;;;;;;44.20;23.75;;;4.50;99.90;;;;;;5068872;28;20123;-81
2021/12/12 01:23:53;;;;;;;48.75;24.67;;;4.30;99.90;;;;;;5066672;28;20080;-82
2021/12/12 01:26:19;;;;;;;40.97;21.35;;;4.30;99.90;;;;;;5063009;28;20089;-81
2021/12/12 01:28:46;;;;;;;36.70;23.13;;;4.50;99.90;;;;;;5042780;28;20056;-83
2021/12/12 01:31:17;;;;;;;44.65;25.48;;;4.30;99.90;;;;;;5064672;28;20475;-82
2021/12/12 01:33:42;;;;;;;;;;;4.50;99.90;;;;;;5062810;28;20041;-74
2021/12/12 01:36:25;;;;;;;43.30;25.67;;;4.30;99.90;;;;;;5061447;28;19927;-81
2021/12/12 01:38:55;;;;;;;49.53;26.02;;;4.40;99.90;;;;;;5062929;28;20045;-83
2021/12/12 01:41:44;;;;;;;42.75;24.83;;;4.30;99.90;;;;;;5062707;28;20098;-82
2021/12/12 01:44:16;;;;;;;42.70;25.63;;;4.30;99.90;;;;;;5062316;28;20429;-82
2021/12/12 01:46:50;;;;;;;50.65;27.23;;;4.40;99.90;;;;;;5062067;28;20182;-83
2021/12/12 01:49:25;;;;;;;44.45;24.98;;;4.50;99.90;;;;;;5060089;28;20048;-82
2021/12/12 01:51:51;;;;;;;57.13;27.95;;;4.50;99.90;;;;;;5063018;28;20036;-82
2021/12/12 01:54:22;;;;;;;46.72;28.42;;;4.30;99.90;;;;;;5058207;28;20059;-84
2021/12/12 01:56:54;;;;;;;41.17;26.15;;;4.30;99.90;;;;;;5050508;28;20063;-84
2021/12/12 01:59:23;;;;;;;43.95;26.08;;;4.30;99.90;;;;;;5053181;28;20056;-82
2021/12/12 02:01:56;;;;;;;59.00;28.80;;;4.50;99.90;;;;;;5066130;28;20040;-82
2021/12/12 02:04:28;;;;;;;59.38;26.13;;;4.40;99.90;;;;;;5054476;28;20037;-83
2021/12/12 02:06:55;;;;;;;55.28;26.73;;;4.50;99.90;;;;;;5056131;28;20048;-82
2021/12/12 02:09:23;;;;;;;50.30;26.83;;;4.40;99.90;;;;;;5056255;28;20080;-82
2021/12/12 02:11:53;;;;;;;40.75;25.58;;;4.50;99.90;;;;;;5059790;28;20048;-83
2021/12/12 02:14:20;;;;;;;41.67;26.05;;;4.30;99.90;;;;;;5072888;28;20048;-82
2021/12/12 02:16:58;;;;;;;42.88;23.48;;;4.20;99.90;;;;;;5067741;28;20101;-83
2021/12/12 02:19:38;;;;;;;51.72;26.50;;;4.40;99.90;;;;;;5053885;28;20040;-82
2021/12/12 02:23:22;;;;;;;44.03;27.02;;;4.30;99.90;;;;;;5086938;28;20043;-83
2021/12/12 02:36:16;;;;;;;46.47;27.60;;;4.40;99.90;;;;;;5078106;28;20048;-82
2021/12/12 02:38:42;;;;;;;45.28;24.83;;;4.40;99.90;;;;;;5084597;28;20101;-81
2021/12/12 02:41:11;;;;;;;52.50;26.88;;;4.50;99.90;;;;;;5089032;28;20044;-80
2021/12/12 02:43:45;;;;;;;54.40;27.27;;;4.50;99.90;;;;;;5076990;28;20052;-80
2021/12/12 02:46:14;;;;;;;54.85;25.95;;;4.30;99.90;;;;;;5058290;28;20044;-79
2021/12/12 02:48:42;;;;;;;42.65;25.92;;;4.50;99.90;;;;;;5056930;28;20051;-81
2021/12/12 02:51:12;;;;;;;48.53;23.17;;;4.40;99.90;;;;;;5076809;28;20041;-81
2021/12/12 02:53:48;;;;;;;56.53;27.15;;;4.50;99.90;;;;;;5084779;28;20044;-82
2021/12/12 02:56:20;;;;;;;52.08;27.45;;;4.60;99.90;;;;;;5080614;28;20493;-77
2021/12/12 02:58:47;;;;;;;41.80;25.45;;;4.70;99.90;;;;;;5070119;28;20046;-84
2021/12/12 03:01:25;;;;;;;45.40;24.33;;;4.60;99.90;;;;;;5059932;28;20041;-80
2021/12/12 03:03:52;;;;;;;43.80;24.45;;;4.60;99.90;;;;;;5078652;28;20145;-81
2021/12/12 03:06:23;;;;;;;41.28;23.02;;;4.50;99.90;;;;;;5081351;28;20028;-81
2021/12/12 03:08:53;;;;;;;47.47;23.35;;;4.50;99.90;;;;;;5084625;28;20050;-81
2021/12/12 03:11:19;;;;;;;40.45;23.08;;;4.50;99.90;;;;;;5084298;28;20040;-81
2021/12/12 03:13:45;;;;;;;48.30;24.52;;;4.70;99.90;;;;;;5060743;28;20071;-81
2021/12/12 03:16:12;;;;;;;42.65;23.45;;;4.60;99.90;;;;;;5068681;28;20041;-82
2021/12/12 03:18:42;;;;;;;41.08;22.08;;;4.80;99.90;;;;;;5062943;28;20045;-82
2021/12/12 03:21:16;;;;;;;36.25;21.98;;;4.70;99.90;;;;;;5060304;28;20033;-82
2021/12/12 03:23:51;;;;;;;33.30;20.52;;;4.80;99.90;;;;;;5063213;28;20044;-83
2021/12/12 03:26:19;;;;;;;36.20;21.55;;;4.90;99.90;;;;;;5060787;28;20394;-80
2021/12/12 03:28:49;;;;;;;34.92;19.70;;;4.60;99.90;;;;;;5063562;28;20127;-81
2021/12/12 03:31:24;;;;;;;31.67;20.65;;;4.90;99.90;;;;;;5059311;28;20114;-76
2021/12/12 03:33:50;;;;;;;40.63;22.58;;;4.80;99.90;;;;;;5059025;28;20036;-81
2021/12/12 03:36:16;;;;;;;39.33;21.13;;;4.90;99.90;;;;;;5053208;28;20041;-81
2021/12/12 03:38:48;;;;;;;33.70;19.77;;;4.70;99.90;;;;;;5056188;28;20116;-81
2021/12/12 03:41:18;;;;;;;31.52;18.92;;;4.80;99.90;;;;;;5065074;28;20131;-78
2021/12/12 03:43:45;;;;;;;28.70;16.90;;;4.70;99.90;;;;;;5059100;28;20070;-80
2021/12/12 03:46:11;;;;;;;26.63;18.85;;;4.70;99.90;;;;;;5070153;28;20057;-81
2021/12/12 03:48:40;;;;;;;28.55;18.83;;;4.70;99.90;;;;;;5066823;28;20517;-82
2021/12/12 03:51:08;;;;;;;27.98;18.23;;;4.60;99.90;;;;;;5062546;28;20127;-81
2021/12/12 03:53:37;;;;;;;25.33;16.95;;;4.80;99.90;;;;;;5058808;28;20060;-81
2021/12/12 03:56:06;;;;;;;21.63;15.75;;;4.90;99.90;;;;;;5048589;28;20072;-81
2021/12/12 03:58:32;;;;;;;28.95;17.45;;;5.00;99.90;;;;;;5066480;28;20498;-81
2021/12/12 04:01:06;;;;;;;22.65;14.88;;;4.80;99.90;;;;;;5063077;28;20045;-83
2021/12/12 04:03:32;;;;;;;25.75;16.75;;;4.90;99.90;;;;;;5051437;28;20056;-80
2021/12/12 04:06:02;;;;;;;20.50;13.60;;;4.90;99.90;;;;;;5060713;28;20487;-81
2021/12/12 04:08:29;;;;;;;;;;;5.00;99.90;;;;;;5056147;28;20052;-82
2021/12/12 04:10:55;;;;;;;27.73;15.10;;;5.00;99.90;;;;;;5065667;28;22184;-81
2021/12/12 04:13:20;;;;;;;22.25;14.35;;;4.90;99.90;;;;;;5055966;28;20056;-82
2021/12/12 04:15:51;;;;;;;26.83;16.00;;;5.00;99.90;;;;;;5071558;28;20048;-81
2021/12/12 04:18:26;;;;;;;21.45;14.05;;;4.90;99.90;;;;;;5085834;28;20143;-82
2021/12/12 04:20:53;;;;;;;24.17;14.80;;;5.00;99.90;;;;;;5078181;28;20035;-81
2021/12/12 04:23:22;;;;;;;23.95;16.08;;;5.10;99.90;;;;;;5086577;28;20054;-82
2021/12/12 04:25:48;;;;;;;21.92;14.65;;;5.00;99.90;;;;;;5071047;28;20044;-81
2021/12/12 04:28:15;;;;;;;19.80;13.88;;;5.00;99.90;;;;;;5088527;28;20559;-81
2021/12/12 04:30:41;;;;;;;21.75;14.05;;;5.10;99.90;;;;;;5089577;28;20040;-82
2021/12/12 04:33:06;;;;;;;18.20;14.05;;;4.90;99.90;;;;;;5078345;28;20067;-82
2021/12/12 04:35:33;;;;;;;20.73;13.25;;;4.90;99.90;;;;;;5073848;28;21002;-81
2021/12/12 04:38:03;;;;;;;21.23;13.27;;;5.10;99.90;;;;;;5070624;28;20032;-80
2021/12/12 04:40:32;;;;;;;17.60;12.63;;;5.10;99.90;;;;;;5069644;28;20123;-80
2021/12/12 04:42:58;;;;;;;19.70;13.95;;;5.10;99.90;;;;;;5079521;28;20401;-81
2021/12/12 04:46:02;;;;;;;17.25;11.40;;;5.10;99.90;;;;;;5062578;28;20086;-79
2021/12/12 04:51:38;;;;;;;19.70;13.82;;;5.30;99.90;;;;;;5080392;28;20048;-81
2021/12/12 04:54:03;;;;;;;15.45;12.38;;;5.00;99.90;;;;;;5077973;28;20645;-79
2021/12/12 04:56:35;;;;;;;18.25;11.70;;;5.30;99.90;;;;;;5079393;28;20054;-80
2021/12/12 04:59:19;;;;;;;22.05;13.23;;;5.30;99.90;;;;;;5080540;28;20058;-81
2021/12/12 05:01:55;;;;;;;18.52;11.73;;;5.10;99.90;;;;;;5063746;28;20056;-82
2021/12/12 05:04:30;;;;;;;19.02;11.95;;;5.20;99.90;;;;;;5077018;28;20051;-80
2021/12/12 05:07:08;;;;;;;16.27;11.70;;;5.40;99.90;;;;;;5079467;28;20035;-81
2021/12/12 05:09:49;;;;;;;15.77;11.32;;;5.20;99.90;;;;;;5087009;28;20055;-81
2021/12/12 05:12:21;;;;;;;13.82;12.35;;;5.30;99.90;;;;;;5084908;28;20093;-79
2021/12/12 05:15:08;;;;;;;17.33;11.05;;;5.50;99.90;;;;;;5084937;28;20055;-81
2021/12/12 05:17:42;;;;;;;21.52;12.05;;;5.50;99.90;;;;;;5060961;28;20139;-82
2021/12/12 05:20:13;;;;;;;18.52;12.27;;;5.20;99.90;;;;;;5083642;28;20048;-81
2021/12/12 05:22:44;;;;;;;14.48;10.95;;;5.30;99.90;;;;;;5082530;28;20036;-79
2021/12/12 05:25:16;;;;;;;17.73;13.52;;;5.30;99.90;;;;;;5081982;28;20123;-81
2021/12/12 05:27:43;;;;;;;19.17;12.55;;;5.40;99.90;;;;;;5077430;28;20044;-79
2021/12/12 05:30:15;;;;;;;23.92;14.15;;;5.40;99.90;;;;;;5083864;28;20131;-82
2021/12/12 05:32:42;;;;;;;22.63;14.50;;;5.60;99.90;;;;;;5076479;28;20032;-82
2021/12/12 05:35:10;;;;;;;19.30;14.35;;;5.50;99.90;;;;;;5078389;28;20094;-83
2021/12/12 05:37:37;;;;;;;26.00;13.65;;;5.60;99.90;;;;;;5081322;28;20040;-81
2021/12/12 05:40:07;;;;;;;19.90;15.45;;;5.40;99.90;;;;;;5076145;28;20447;-81
2021/12/12 05:42:33;;;;;;;22.27;15.10;;;5.50;99.90;;;;;;5082609;28;20052;-81
2021/12/12 05:45:00;;;;;;;20.80;15.23;;;5.50;99.90;;;;;;5080412;28;20040;-81
2021/12/12 05:47:27;;;;;;;26.30;17.55;;;5.40;99.90;;;;;;5057239;28;20052;-81
2021/12/12 05:49:52;;;;;;;20.33;16.50;;;5.60;99.90;;;;;;5080405;28;20115;-82
2021/12/12 05:52:21;;;;;;;24.63;16.80;;;5.60;99.90;;;;;;5071745;28;20128;-82
2021/12/12 05:54:48;;;;;;;22.08;17.80;;;5.40;99.90;;;;;;5081359;28;20038;-83
2021/12/12 05:57:19;;;;;;;19.67;15.48;;;5.60;99.90;;;;;;5095745;28;20475;-77
2021/12/12 05:59:46;;;;;;;26.45;17.75;;;5.60;99.90;;;;;;5096354;28;20051;-83
2021/12/12 06:02:12;;;;;;;23.73;15.48;;;5.50;99.90;;;;;;5081927;28;20056;-79
2021/12/12 06:04:38;;;;;;;24.73;17.38;;;5.70;99.90;;;;;;5089612;28;20036;-83
2021/12/12 06:07:08;;;;;;;22.55;17.02;;;5.60;99.90;;;;;;5085895;28;20035;-81
2021/12/12 06:09:34;;;;;;;21.90;17.00;;;5.50;99.90;;;;;;5095148;28;20532;-80
2021/12/12 06:12:03;;;;;;;24.05;16.77;;;5.60;99.90;;;;;;5090280;28;20090;-81
2021/12/12 06:14:30;;;;;;;24.98;17.63;;;5.50;99.90;;;;;;5069112;28;20063;-80
2021/12/12 06:16:58;;;;;;;26.70;17.75;;;5.70;99.90;;;;;;5076025;28;20049;-82
2021/12/12 06:19:25;;;;;;;24.70;18.92;;;5.80;99.90;;;;;;5085137;28;20127;-83
2021/12/12 06:21:54;;;;;;;31.27;20.35;;;5.50;99.90;;;;;;5088286;28;20086;-84
2021/12/12 06:24:22;;;;;;;27.55;20.13;;;5.60;99.90;;;;;;5057500;28;20048;-81
2021/12/12 06:26:48;;;;;;;33.42;22.77;;;5.70;99.90;;;;;;5095754;28;20050;-80
2021/12/12 06:29:14;;;;;;;33.38;22.33;;;5.70;99.90;;;;;;5084079;28;20079;-79
2021/12/12 06:31:43;;;;;;;33.35;20.80;;;5.60;99.90;;;;;;5078256;28;20598;-81
2021/12/12 06:34:10;;;;;;;33.33;20.88;;;5.70;99.90;;;;;;5083557;28;20044;-81
2021/12/12 06:36:36;;;;;;;30.10;20.70;;;5.70;99.90;;;;;;5093922;28;20046;-80
2021/12/12 06:39:05;;;;;;;33.40;20.55;;;5.80;99.90;;;;;;5088859;28;20516;-79
2021/12/12 06:41:31;;;;;;;29.35;20.40;;;5.70;99.90;;;;;;5081435;28;20043;-81
2021/12/12 06:43:57;;;;;;;25.80;18.02;;;5.80;99.90;;;;;;5067949;28;20139;-81
2021/12/12 06:46:24;;;;;;;28.30;19.98;;;5.60;99.90;;;;;;5078386;28;20498;-80
2021/12/12 06:48:50;;;;;;;28.13;18.40;;;5.90;99.90;;;;;;5093046;28;20064;-80
2021/12/12 06:51:16;;;;;;;31.55;20.50;;;5.80;99.90;;;;;;5065866;28;20157;-81
2021/12/12 06:53:45;;;;;;;24.50;17.30;;;5.80;99.90;;;;;;5074621;28;20075;-80
2021/12/12 06:56:15;;;;;;;27.60;19.23;;;5.70;99.90;;;;;;5085233;28;20040;-83
2021/12/12 06:58:41;;;;;;;27.30;18.50;;;5.70;99.90;;;;;;5094153;28;20971;-80
2021/12/12 07:01:15;;;;;;;28.40;19.75;;;5.90;99.90;;;;;;5084475;28;20063;-82
2021/12/12 07:03:41;;;;;;;29.85;20.08;;;5.70;99.90;;;;;;5064403;28;20116;-82
2021/12/12 07:06:07;;;;;;;33.28;22.55;;;5.80;99.90;;;;;;5062243;28;20028;-83
2021/12/12 07:08:33;;;;;;;30.10;20.58;;;6.00;99.90;;;;;;5090318;28;20090;-80
2021/12/12 07:10:59;;;;;;;30.30;20.55;;;5.80;99.90;;;;;;5086151;28;20044;-80
2021/12/12 07:13:25;;;;;;;47.88;22.70;;;6.00;99.90;;;;;;5059030;28;20455;-81
2021/12/12 07:15:55;;;;;;;36.60;21.73;;;6.00;99.90;;;;;;5052937;28;20475;-82
2021/12/12 07:18:24;;;;;;;40.33;24.00;;;5.90;99.90;;;;;;5056302;28;20139;-82
2021/12/12 07:20:58;;;;;;;35.38;21.33;;;5.90;99.90;;;;;;5058898;28;20866;-81
2021/12/12 07:23:24;;;;;;;35.65;21.73;;;6.10;99.90;;;;;;5047824;28;20036;-81
2021/12/12 07:25:52;;;;;;;43.10;22.98;;;5.90;99.90;;;;;;5054094;28;20171;-82
2021/12/12 07:28:17;;;;;;;38.22;24.83;;;6.10;99.90;;;;;;5068361;28;20040;-82
2021/12/12 07:30:43;;;;;;;42.53;23.67;;;6.00;99.90;;;;;;5053962;28;20051;-80
2021/12/12 07:33:10;;;;;;;49.20;25.15;;;6.00;99.90;;;;;;5065258;28;20067;-85
2021/12/12 07:35:39;;;;;;;40.33;21.60;;;6.00;99.90;;;;;;5060224;28;20041;-90
2021/12/12 07:38:11;;;;;;;43.10;24.25;;;6.10;99.90;;;;;;5069045;28;20048;-78
2021/12/12 07:40:37;;;;;;;42.50;23.67;;;6.00;99.90;;;;;;5060373;28;20463;-80
2021/12/12 07:43:05;;;;;;;43.92;23.90;;;6.00;99.90;;;;;;5059480;28;20106;-80
2021/12/12 07:45:32;;;;;;;39.80;23.30;;;6.30;99.90;;;;;;5058346;28;20509;-81
2021/12/12 07:47:58;;;;;;;45.97;24.40;;;6.10;99.90;;;;;;5048502;28;20395;-79
2021/12/12 07:50:26;;;;;;;40.58;23.45;;;6.10;99.90;;;;;;5049150;28;20044;-81
2021/12/12 07:52:53;;;;;;;40.65;24.23;;;6.10;99.90;;;;;;5069490;28;20080;-76
2021/12/12 07:55:20;;;;;;;50.08;25.55;;;6.20;99.90;;;;;;5050945;28;20540;-86
2021/12/12 07:57:46;;;;;;;43.03;24.73;;;6.10;99.90;;;;;;5064686;28;20037;-85
2021/12/12 08:00:16;;;;;;;52.67;27.38;;;6.30;99.90;;;;;;5069150;28;20379;-82
2021/12/12 08:02:42;;;;;;;55.40;28.85;;;6.30;99.90;;;;;;5053332;28;20053;-83
2021/12/12 08:05:11;;;;;;;46.97;26.25;;;6.30;99.90;;;;;;5050665;28;20045;-84
2021/12/12 08:07:40;;;;;;;56.95;26.85;;;6.40;99.90;;;;;;5058749;28;20048;-83
2021/12/12 08:10:08;;;;;;;46.80;24.52;;;6.30;99.90;;;;;;5058973;28;20048;-82
2021/12/12 08:12:34;;;;;;;44.22;25.60;;;6.40;99.90;;;;;;5035313;28;20694;-83
2021/12/12 08:15:04;;;;;;;40.22;24.25;;;6.50;99.90;;;;;;5057853;28;20458;-83
2021/12/12 08:17:30;;;;;;;51.10;26.55;;;6.50;99.90;;;;;;5052421;28;20142;-83
2021/12/12 08:20:00;;;;;;;51.38;23.38;;;6.40;99.90;;;;;;5057302;28;20033;-83
2021/12/12 08:22:26;;;;;;;45.28;25.83;;;6.60;99.90;;;;;;5069633;28;20119;-83
2021/12/12 08:24:53;;;;;;;49.80;25.23;;;6.60;99.90;;;;;;5066622;28;20048;-84
2021/12/12 08:27:18;;;;;;;46.53;22.85;;;6.60;99.90;;;;;;5064628;28;20483;-84
2021/12/12 08:29:44;;;;;;;52.85;26.08;;;6.70;99.90;;;;;;5056749;28;20060;-82
2021/12/12 08:32:12;;;;;;;50.08;25.95;;;6.80;99.90;;;;;;5053297;28;20106;-83
2021/12/12 08:34:38;;;;;;;48.65;26.42;;;6.80;99.90;;;;;;5053691;28;20514;-84
2021/12/12 08:37:05;;;;;;;58.25;28.05;;;6.80;99.90;;;;;;5063658;28;20040;-83
2021/12/12 08:39:32;;;;;;;51.72;26.90;;;6.80;99.90;;;;;;5066648;28;20426;-83
2021/12/12 08:41:59;;;;;;;51.90;26.63;;;6.90;99.90;;;;;;5054632;28;20051;-83
2021/12/12 08:44:28;;;;;;;55.45;28.98;;;7.00;99.90;;;;;;5051144;28;20041;-83
2021/12/12 08:46:56;;;;;;;59.55;30.75;;;7.00;99.90;;;;;;5052122;28;20102;-76
2021/12/12 08:49:24;;;;;;;61.30;31.45;;;7.10;99.90;;;;;;5055724;28;20048;-84
2021/12/12 08:52:12;;;;;;;66.65;29.38;;;7.00;99.90;;;;;;5058651;28;20043;-83
2021/12/12 08:54:41;;;;;;;61.65;28.63;;;7.00;99.90;;;;;;5052733;28;20084;-83
2021/12/12 08:57:20;;;;;;;70.78;32.45;;;7.10;99.90;;;;;;5051938;28;20051;-82
2021/12/12 08:59:48;;;;;;;69.72;33.63;;;7.20;99.90;;;;;;5052298;28;20067;-82
2021/12/12 09:02:17;;;;;;;69.72;31.02;;;7.10;99.90;;;;;;5066848;28;20060;-80
2021/12/12 09:04:51;;;;;;;71.47;31.92;;;7.20;99.90;;;;;;5072183;28;20044;-83
2021/12/12 09:07:27;;;;;;;72.68;33.13;;;7.10;99.90;;;;;;5068507;28;20136;-83
2021/12/12 09:10:04;;;;;;;91.97;34.20;;;7.20;99.90;;;;;;5035330;28;20395;-82
2021/12/12 09:12:36;;;;;;;96.10;36.15;;;7.20;99.90;;;;;;5055541;28;20105;-86
2021/12/12 09:15:18;;;;;;;92.88;34.00;;;7.40;99.90;;;;;;5069217;28;20059;-82
2021/12/12 09:17:55;;;;;;;85.72;35.20;;;7.30;99.90;;;;;;5060773;28;20148;-84
2021/12/12 09:20:36;;;;;;;92.97;36.05;;;7.40;99.90;;;;;;5060068;28;20045;-84
2021/12/12 09:23:07;;;;;;;84.50;33.88;;;7.40;99.90;;;;;;5053215;28;20081;-81
2021/12/12 09:25:50;;;;;;;92.13;35.20;;;7.60;99.90;;;;;;5056007;28;20490;-86
2021/12/12 09:28:39;;;;;;;91.03;34.60;;;7.50;99.90;;;;;;5066515;28;20443;-86
2021/12/12 09:31:12;;;;;;;82.05;34.28;;;7.50;99.90;;;;;;5052017;28;20041;-85
2021/12/12 09:33:53;;;;;;;89.65;34.42;;;7.50;99.90;;;;;;5054574;28;20099;-86
2021/12/12 09:36:31;;;;;;;80.30;32.28;;;7.50;99.90;;;;;;5055036;28;20044;-87
2021/12/12 09:39:24;;;;;;;86.32;34.05;;;7.50;99.90;;;;;;5058961;28;20094;-87
2021/12/12 09:42:18;;;;;;;84.63;32.28;;;7.70;99.90;;;;;;5070982;28;20059;-87
2021/12/12 09:45:11;;;;;;;99.20;36.05;;;7.60;99.90;;;;;;5076945;28;20037;-80
2021/12/12 09:53:32;;;;;;;97.50;33.22;;;7.80;99.90;;;;;;5053397;28;20053;-86
2021/12/12 09:56:04;;;;;;;84.68;36.33;;;7.80;99.90;;;;;;5057915;28;20487;-88
2021/12/12 09:58:42;;;;;;;86.80;34.47;;;7.80;99.90;;;;;;5056575;28;20128;-85
2021/12/12 10:01:11;;;;;;;86.40;32.63;;;7.80;99.90;;;;;;5058778;28;20423;-90
2021/12/12 10:03:59;;;;;;;85.83;33.23;;;7.90;99.90;;;;;;5067935;28;20052;-90
2021/12/12 10:06:33;;;;;;;91.03;37.40;;;7.80;99.90;;;;;;5052649;28;20055;-87
2021/12/12 10:09:13;;;;;;;93.00;32.25;;;7.90;99.90;;;;;;5071510;28;20047;-85
2021/12/12 10:11:50;;;;;;;93.63;34.78;;;7.90;99.90;;;;;;5086407;28;20055;-86
2021/12/12 10:14:37;;;;;;;84.30;33.25;;;8.00;99.90;;;;;;5082065;28;20059;-84
2021/12/12 10:17:33;;;;;;;75.07;34.40;;;8.00;99.90;;;;;;5093281;28;20413;-85
2021/12/12 10:20:09;;;;;;;82.50;33.53;;;7.90;99.90;;;;;;5105174;28;20071;-89
2021/12/12 10:23:04;;;;;;;76.63;30.98;;;8.00;99.90;;;;;;5081562;28;20096;-86
2021/12/12 10:25:44;;;;;;;73.93;32.17;;;8.20;99.90;;;;;;5075615;28;20470;-85
2021/12/12 10:28:51;;;;;;;89.07;34.95;;;8.20;99.90;;;;;;5098122;28;20044;-84
2021/12/12 10:31:32;;;;;;;74.95;30.50;;;8.10;99.90;;;;;;5061623;28;20055;-79
2021/12/12 10:34:07;;;;;;;73.53;28.42;;;8.20;99.90;;;;;;5066490;28;20529;-82
2021/12/12 10:36:39;;;;;;;67.18;28.83;;;8.20;99.90;;;;;;5088751;28;20092;-82
2021/12/12 10:39:09;;;;;;;83.22;31.70;;;8.30;99.90;;;;;;5103809;28;20036;-87
2021/12/12 10:41:38;;;;;;;85.07;32.40;;;8.20;99.90;;;;;;5093064;28;20566;-83
2021/12/12 10:44:11;;;;;;;67.55;28.27;;;8.30;99.90;;;;;;5098596;28;20452;-84
2021/12/12 10:46:42;;;;;;;71.30;29.27;;;8.30;99.90;;;;;;5079317;28;20051;-84
2021/12/12 10:49:40;;;;;;;72.57;29.88;;;8.30;99.90;;;;;;5083656;28;20068;-86
2021/12/12 10:52:15;;;;;;;70.57;28.42;;;8.30;99.90;;;;;;5077677;28;20048;-84
2021/12/12 10:54:52;;;;;;;65.35;26.20;;;8.20;99.90;;;;;;5086065;28;20187;-84
2021/12/12 10:57:22;;;;;;;74.32;30.38;;;8.30;99.90;;;;;;5054502;28;20090;-86
2021/12/12 10:59:53;;;;;;;79.07;30.77;;;8.30;99.90;;;;;;5055327;28;20185;-85
2021/12/12 11:02:25;;;;;;;74.03;29.63;;;8.30;99.90;;;;;;5085515;28;20032;-84
2021/12/12 11:05:21;;;;;;;67.90;28.70;;;8.40;99.90;;;;;;5067710;28;20057;-85
2021/12/12 11:07:53;;;;;;;79.13;28.42;;;8.30;99.90;;;;;;5083984;28;20067;-85
2021/12/12 11:10:25;;;;;;;73.45;29.15;;;8.30;99.90;;;;;;5063047;28;20117;-86
2021/12/12 11:12:56;;;;;;;66.75;26.67;;;8.30;99.90;;;;;;5106897;28;20499;-89
2021/12/12 11:15:37;;;;;;;61.97;27.45;;;8.50;99.90;;;;;;5097077;28;20062;-84
2021/12/12 11:18:02;;;;;;;59.25;27.40;;;8.50;99.90;;;;;;5056290;28;20135;-86
2021/12/12 11:20:35;;;;;;;59.83;25.13;;;8.50;99.90;;;;;;5072262;28;20086;-86
2021/12/12 11:23:08;;;;;;;59.22;27.95;;;8.30;99.90;;;;;;5084511;28;20044;-86
2021/12/12 11:25:46;;;;;;;58.58;25.15;;;8.40;99.90;;;;;;5064008;28;20151;-88
2021/12/12 11:28:23;;;;;;;50.95;24.08;;;8.40;99.90;;;;;;5065250;28;20058;-87
2021/12/12 11:30:57;;;;;;;58.58;24.92;;;8.40;99.90;;;;;;5059482;28;20045;-81
2021/12/12 11:33:26;;;;;;;53.28;23.65;;;8.40;99.90;;;;;;5059377;28;20068;-89
2021/12/12 11:35:55;;;;;;;58.40;23.08;;;8.50;99.90;;;;;;5053982;28;20045;-86
2021/12/12 11:38:26;;;;;;;56.40;23.48;;;8.50;99.90;;;;;;5068070;28;20143;-88
2021/12/12 11:41:13;;;;;;;53.40;23.88;;;8.50;99.90;;;;;;5080210;28;20032;-90
2021/12/12 11:43:41;;;;;;;49.50;21.27;;;8.60;99.90;;;;;;5086984;28;20047;-88
2021/12/12 11:46:21;;;;;;;49.63;21.05;;;8.50;99.90;;;;;;5089958;28;20046;-87
2021/12/12 11:48:55;;;;;;;49.25;21.35;;;8.50;99.90;;;;;;5093064;28;20498;-88
2021/12/12 11:51:40;;;;;;;53.53;21.40;;;8.50;99.90;;;;;;5078687;28;20052;-92
2021/12/12 11:54:39;;;;;;;44.97;20.02;;;8.50;99.90;;;;;;5083304;28;20044;-90
2021/12/12 11:57:18;;;;;;;44.30;20.80;;;8.50;99.90;;;;;;5086974;28;20047;-89
2021/12/12 11:59:58;;;;;;;55.60;22.95;;;8.60;99.90;;;;;;5096354;28;20098;-88
2021/12/12 12:02:48;;;;;;;50.58;22.55;;;8.50;99.90;;;;;;5089603;28;20040;-87
2021/12/12 12:05:52;;;;;;;47.47;20.25;;;8.60;99.90;;;;;;5076584;28;20190;-83
2021/12/12 12:08:45;;;;;;;46.90;20.58;;;8.60;99.90;;;;;;5083728;28;20565;-89
2021/12/12 12:11:47;;;;;;;58.88;22.38;;;8.60;99.90;;;;;;5078871;28;20083;-89
2021/12/12 12:14:51;;;;;;;50.10;22.75;;;8.70;99.90;;;;;;5074186;28;20059;-83
2021/12/12 12:17:30;;;;;;;56.78;23.73;;;8.70;99.90;;;;;;5066418;28;20465;-88
2021/12/12 12:20:09;;;;;;;53.85;21.50;;;8.80;99.90;;;;;;5073321;28;20055;-90
2021/12/12 12:23:02;;;;;;;53.40;21.88;;;8.80;99.90;;;;;;5076085;28;20044;-89
2021/12/12 12:28:44;;;;;;;48.60;21.10;;;8.80;99.90;;;;;;5101664;28;20096;-83
2021/12/12 12:31:41;;;;;;;54.95;23.23;;;8.90;99.90;;;;;;5089082;28;20048;-88
2021/12/12 12:34:41;;;;;;;48.55;21.58;;;8.90;99.90;;;;;;5074790;28;20052;-87
2021/12/12 12:37:29;;;;;;;51.13;21.15;;;8.90;99.90;;;;;;5084558;28;20040;-88
2021/12/12 12:40:32;;;;;;;49.58;20.75;;;8.90;99.90;;;;;;5077602;28;20044;-86
2021/12/12 12:43:32;;;;;;;52.78;22.20;;;9.00;99.90;;;;;;5066659;28;20075;-87
2021/12/12 12:46:52;;;;;;;49.58;19.15;;;9.00;99.90;;;;;;5086103;28;20071;-86
2021/12/12 12:49:37;;;;;;;46.55;20.20;;;9.00;99.90;;;;;;5084825;28;20054;-88
2021/12/12 12:52:40;;;;;;;49.03;20.92;;;9.00;99.90;;;;;;5053454;28;20040;-88
2021/12/12 12:55:34;;;;;;;42.78;19.90;;;9.10;99.90;;;;;;5064942;28;20052;-85
2021/12/12 12:58:24;;;;;;;42.40;18.83;;;9.20;99.90;;;;;;5081298;28;20044;-86
2021/12/12 13:00:56;;;;;;;42.50;19.27;;;9.20;99.90;;;;;;5079018;28;20394;-84
2021/12/12 13:03:53;;;;;;;44.03;20.23;;;9.20;99.90;;;;;;5063658;28;20135;-83
2021/12/12 13:07:02;;;;;;;43.47;17.15;;;9.20;99.90;;;;;;5072752;28;20032;-83
2021/12/12 13:09:30;;;;;;;46.35;18.23;;;9.30;99.90;;;;;;5063842;28;20051;-85
2021/12/12 13:12:10;;;;;;;37.65;16.92;;;9.20;99.90;;;;;;5075658;28;20037;-83
2021/12/12 13:14:54;;;;;;;45.20;16.60;;;9.30;99.90;;;;;;5063059;28;20067;-85
2021/12/12 13:17:35;;;;;;;37.67;16.95;;;9.20;99.90;;;;;;5073521;28;20043;-82
2021/12/12 13:20:37;;;;;;;49.45;19.85;;;9.20;99.90;;;;;;5086316;28;20414;-76
2021/12/12 13:23:17;;;;;;;39.47;16.30;;;9.20;99.90;;;;;;5100553;28;20040;-86
2021/12/12 13:25:49;;;;;;;59.67;20.60;;;9.30;99.90;;;;;;5088343;28;20048;-84
2021/12/12 13:28:34;;;;;;;46.58;18.52;;;9.30;99.90;;;;;;5081628;28;20518;-85
2021/12/12 13:31:17;;;;;;;47.80;18.55;;;9.30;99.90;;;;;;5083984;28;20124;-88
2021/12/12 13:33:56;;;;;;;34.28;16.45;;;9.20;99.90;;;;;;5083490;28;20383;-75